createdAt,value
2018-11-10T00:00:07.061Z,95330.17
2018-11-10T00:02:36.055Z,95329.51
2018-11-10T00:05:05.496Z,95331.78
2018-11-10T00:07:34.310Z,95329.19
2018-11-10T00:10:03.099Z,95328.37
2018-11-10T00:12:31.843Z,95330.30
2018-11-10T00:15:00.617Z,95331.13
2018-11-10T00:17:29.425Z,95331.14
2018-11-10T00:19:58.150Z,95324.31
2018-11-10T00:22:26.867Z,95329.51
2018-11-10T00:24:55.610Z,95328.22
2018-11-10T00:27:24.351Z,95327.89
2018-11-10T00:29:53.141Z,95327.41
2018-11-10T00:32:21.962Z,95328.38
2018-11-10T00:34:50.736Z,95326.75
2018-11-10T00:37:19.625Z,95330.02
2018-11-10T00:39:48.455Z,95325.94
2018-11-10T00:42:17.264Z,95329.52
2018-11-10T00:44:46.030Z,95329.67
2018-11-10T00:47:14.916Z,95330.48
2018-11-10T00:49:43.752Z,95330.50
2018-11-10T00:52:12.560Z,95325.62
2018-11-10T00:54:41.425Z,95326.91
2018-11-10T00:57:10.416Z,95325.75
2018-11-10T00:59:39.153Z,95324.95
2018-11-10T01:02:07.939Z,95323.66
2018-11-10T01:04:36.718Z,95321.70
2018-11-10T01:07:06.362Z,95324.30
2018-11-10T01:09:35.215Z,95326.73
2018-11-10T01:12:04.623Z,95329.82
2018-11-10T01:14:33.382Z,95319.11
2018-11-10T01:17:02.239Z,95323.02
2018-11-10T01:19:31.028Z,95317.14
2018-11-10T01:22:00.120Z,95318.60
2018-11-10T01:24:28.915Z,95313.72
2018-11-10T01:26:57.695Z,95314.04
2018-11-10T01:29:26.491Z,95309.14
2018-11-10T01:31:55.234Z,95316.80
2018-11-10T01:34:24.031Z,95305.56
2018-11-10T01:36:52.778Z,95314.50
2018-11-10T01:39:21.516Z,95312.41
2018-11-10T01:41:50.258Z,95314.98
2018-11-10T01:44:18.986Z,95313.03
2018-11-10T01:46:48.103Z,95313.80
2018-11-10T01:49:16.859Z,95319.84
2018-11-10T01:51:45.639Z,95312.35
2018-11-10T01:54:14.749Z,95312.64
2018-11-10T01:56:43.563Z,95312.83
2018-11-10T01:59:12.323Z,95306.94
2018-11-10T02:01:41.025Z,95304.52
2018-11-10T02:04:09.841Z,95300.45
2018-11-10T02:06:38.662Z,95299.64
2018-11-10T02:09:09.818Z,95301.09
2018-11-10T02:11:38.612Z,95299.64
2018-11-10T02:14:07.443Z,95304.05
2018-11-10T02:16:36.211Z,95301.75
2018-11-10T02:19:05.337Z,95298.16
2018-11-10T02:21:34.158Z,95303.03
2018-11-10T02:24:02.925Z,95300.10
2018-11-10T02:26:31.798Z,95303.83
2018-11-10T02:29:00.723Z,95306.55
2018-11-10T02:31:29.591Z,95307.58
2018-11-10T02:33:58.367Z,95307.86
2018-11-10T02:36:27.189Z,95308.67
2018-11-10T02:38:55.968Z,95308.19
2018-11-10T02:41:25.061Z,95313.05
2018-11-10T02:43:53.928Z,95312.12
2018-11-10T02:46:22.836Z,95310.43
2018-11-10T02:48:51.616Z,95306.53
2018-11-10T02:51:20.400Z,95312.39
2018-11-10T02:53:49.161Z,95313.21
2018-11-10T02:56:18.833Z,95304.20
2018-11-10T02:58:47.578Z,95309.89
2018-11-10T03:01:16.364Z,95316.52
2018-11-10T03:03:45.100Z,95317.99
2018-11-10T03:06:14.831Z,95322.08
2018-11-10T03:08:43.616Z,95317.23
2018-11-10T03:11:12.383Z,95323.56
2018-11-10T03:13:41.163Z,95324.08
2018-11-10T03:16:09.994Z,95326.03
2018-11-10T03:18:38.836Z,95332.52
2018-11-10T03:21:07.660Z,95329.06
2018-11-10T03:23:36.458Z,95326.91
2018-11-10T03:26:06.006Z,95330.14
2018-11-10T03:28:34.722Z,95324.24
2018-11-10T03:31:03.483Z,95324.42
2018-11-10T03:33:32.276Z,95318.48
2018-11-10T03:36:01.067Z,95323.01
2018-11-10T03:38:30.022Z,95324.31
2018-11-10T03:40:58.970Z,95318.82
2018-11-10T03:43:27.860Z,95320.97
2018-11-10T03:45:56.654Z,95322.80
2018-11-10T03:48:25.421Z,95316.74
2018-11-10T03:50:54.146Z,95314.84
2018-11-10T03:53:22.918Z,95314.21
2018-11-10T03:55:51.695Z,95313.21
2018-11-10T03:58:20.419Z,95312.25
2018-11-10T04:00:49.208Z,95315.48
2018-11-10T04:03:18.005Z,95317.92
2018-11-10T04:05:46.812Z,95315.00
2018-11-10T04:08:15.597Z,95322.61
2018-11-10T04:10:44.346Z,95319.97
2018-11-10T04:13:13.122Z,95318.30
2018-11-10T04:15:41.882Z,95316.85
2018-11-10T04:18:10.655Z,95322.56
2018-11-10T04:20:39.445Z,95323.16
2018-11-10T04:23:08.392Z,95322.20
2018-11-10T04:25:37.164Z,95325.09
2018-11-10T04:28:06.431Z,95324.12
2018-11-10T04:30:35.141Z,95318.92
2018-11-10T04:33:03.955Z,95321.85
2018-11-10T04:35:32.995Z,95320.55
2018-11-10T04:38:01.759Z,95316.32
2018-11-10T04:40:32.354Z,95317.77
2018-11-10T04:43:01.164Z,95322.28
2018-11-10T04:45:29.942Z,95317.34
2018-11-10T04:47:58.710Z,95322.68
2018-11-10T04:50:27.470Z,95320.90
2018-11-10T04:52:56.332Z,95330.48
2018-11-10T04:55:25.193Z,95324.66
2018-11-10T04:57:53.914Z,95324.80
2018-11-10T05:00:22.730Z,95322.39
2018-11-10T05:02:51.489Z,95325.19
2018-11-10T05:05:20.345Z,95323.59
2018-11-10T05:07:49.061Z,95322.11
2018-11-10T05:10:17.827Z,95325.71
2018-11-10T05:12:46.568Z,95322.63
2018-11-10T05:15:15.364Z,95324.23
2018-11-10T05:17:44.177Z,95333.31
2018-11-10T05:20:12.935Z,95325.38
2018-11-10T05:22:41.759Z,95335.14
2018-11-10T05:25:11.262Z,95331.05
2018-11-10T05:27:40.253Z,95332.39
2018-11-10T05:30:09.647Z,95332.12
2018-11-10T05:32:38.485Z,95335.28
2018-11-10T05:35:08.132Z,95323.15
2018-11-10T05:37:36.957Z,95331.29
2018-11-10T05:40:07.062Z,95330.47
2018-11-10T05:42:35.910Z,95321.89
2018-11-10T05:45:05.006Z,95317.84
2018-11-10T05:47:33.867Z,95320.34
2018-11-10T05:50:02.703Z,95330.73
2018-11-10T05:52:31.654Z,95328.10
2018-11-10T05:55:00.501Z,95332.38
2018-11-10T05:57:29.310Z,95332.08
2018-11-10T05:59:58.155Z,95330.48
2018-11-10T06:02:26.922Z,95337.31
2018-11-10T06:04:55.857Z,95341.22
2018-11-10T06:07:24.639Z,95336.34
2018-11-10T06:09:53.658Z,95343.06
2018-11-10T06:12:22.723Z,95341.77
2018-11-10T06:14:51.742Z,95334.66
2018-11-10T06:17:20.670Z,95340.19
2018-11-10T06:19:49.530Z,95343.19
2018-11-10T06:22:18.317Z,95341.01
2018-11-10T06:24:47.201Z,95342.37
2018-11-10T06:27:16.025Z,95344.33
2018-11-10T06:29:44.834Z,95348.74
2018-11-10T06:32:13.594Z,95353.84
2018-11-10T06:34:42.426Z,95359.42
2018-11-10T06:37:11.236Z,95354.87
2018-11-10T06:39:40.053Z,95357.32
2018-11-10T06:42:08.922Z,95356.98
2018-11-10T06:44:37.645Z,95360.24
2018-11-10T06:47:06.679Z,95359.12
2018-11-10T06:49:35.583Z,95362.53
2018-11-10T06:52:04.406Z,95366.14
2018-11-10T06:54:33.278Z,95367.30
2018-11-10T06:57:02.052Z,95366.13
2018-11-10T06:59:30.860Z,95364.17
2018-11-10T07:01:59.619Z,95367.61
2018-11-10T07:04:28.414Z,95363.72
2018-11-10T07:06:57.192Z,95363.38
2018-11-10T07:09:26.431Z,95361.29
2018-11-10T07:11:55.439Z,95357.69
2018-11-10T07:14:24.203Z,95361.59
2018-11-10T07:16:52.986Z,95355.23
2018-11-10T07:19:21.785Z,95353.11
2018-11-10T07:21:50.593Z,95356.01
2018-11-10T07:24:19.384Z,95357.63
2018-11-10T07:26:48.178Z,95360.20
2018-11-10T07:29:17.086Z,95351.86
2018-11-10T07:31:46.078Z,95355.28
2018-11-10T07:34:15.069Z,95354.92
2018-11-10T07:36:43.830Z,95348.37
2018-11-10T07:39:13.033Z,95344.33
2018-11-10T07:41:41.885Z,95342.33
2018-11-10T07:44:10.640Z,95337.40
2018-11-10T07:46:39.370Z,95339.35
2018-11-10T07:49:08.163Z,95335.68
2018-11-10T07:51:37.117Z,95336.97
2018-11-10T07:54:05.900Z,95342.48
2018-11-10T07:56:34.691Z,95334.80
2018-11-10T07:59:03.434Z,95333.31
2018-11-10T08:01:32.236Z,95336.20
2018-11-10T08:04:00.996Z,95332.55
2018-11-10T08:06:29.766Z,95332.86
2018-11-10T08:08:58.553Z,95337.22
2018-11-10T08:11:27.523Z,95328.17
2018-11-10T08:13:56.330Z,95331.86
2018-11-10T08:16:25.116Z,95331.59
2018-11-10T08:18:53.918Z,95332.95
2018-11-10T08:21:22.674Z,95331.79
2018-11-10T08:23:51.586Z,95328.75
2018-11-10T08:26:20.405Z,95334.57
2018-11-10T08:28:49.199Z,95327.11
2018-11-10T08:31:18.103Z,95321.53
2018-11-10T08:33:46.999Z,95321.30
2018-11-10T08:36:15.871Z,95326.82
2018-11-10T08:38:44.862Z,95330.16
2018-11-10T08:41:13.648Z,95329.16
2018-11-10T08:43:42.502Z,95326.86
2018-11-10T08:46:11.557Z,95325.09
2018-11-10T08:48:40.429Z,95329.52
2018-11-10T08:51:09.845Z,95318.72
2018-11-10T08:53:38.696Z,95317.73
2018-11-10T08:56:09.214Z,95319.44
2018-11-10T08:58:43.626Z,95318.77
2018-11-10T09:01:12.658Z,95316.25
2018-11-10T09:03:41.447Z,95309.14
2018-11-10T09:06:10.282Z,95314.45
2018-11-10T09:08:39.054Z,95308.11
2018-11-10T09:11:07.938Z,95307.91
2018-11-10T09:13:36.771Z,95305.05
2018-11-10T09:16:05.633Z,95306.14
2018-11-10T09:18:34.620Z,95302.71
2018-11-10T09:21:03.392Z,95296.36
2018-11-10T09:23:32.339Z,95295.24
2018-11-10T09:26:01.186Z,95292.73
2018-11-10T09:28:30.008Z,95289.56
2018-11-10T09:30:59.092Z,95291.42
2018-11-10T09:33:28.083Z,95284.14
2018-11-10T09:35:57.032Z,95283.20
2018-11-10T09:38:25.834Z,95286.91
2018-11-10T09:40:54.650Z,95279.85
2018-11-10T09:43:23.567Z,95277.36
2018-11-10T09:45:52.447Z,95275.67
2018-11-10T09:48:21.918Z,95272.01
2018-11-10T09:50:50.767Z,95258.64
2018-11-10T09:53:19.795Z,95259.34
2018-11-10T09:55:48.609Z,95262.65
2018-11-10T09:58:17.417Z,95258.43
2018-11-10T10:00:46.188Z,95250.55
2018-11-10T10:03:15.042Z,95254.86
2018-11-10T10:05:43.874Z,95248.12
2018-11-10T10:08:12.678Z,95242.42
2018-11-10T10:10:41.510Z,95236.93
2018-11-10T10:13:10.368Z,95233.05
2018-11-10T10:15:39.208Z,95232.78
2018-11-10T10:18:07.970Z,95231.50
2018-11-10T10:20:36.748Z,95222.73
2018-11-10T10:23:05.940Z,95223.56
2018-11-10T10:25:34.797Z,95220.36
2018-11-10T10:28:03.594Z,95215.10
2018-11-10T10:30:32.378Z,95210.77
2018-11-10T10:33:01.314Z,95211.08
2018-11-10T10:35:30.363Z,95206.55
2018-11-10T10:37:59.186Z,95204.11
2018-11-10T10:40:27.942Z,95207.66
2018-11-10T10:42:56.828Z,95196.44
2018-11-10T10:45:25.771Z,95191.58
2018-11-10T10:47:54.631Z,95188.34
2018-11-10T10:50:23.806Z,95194.02
2018-11-10T10:52:52.606Z,95187.81
2018-11-10T10:55:21.496Z,95185.99
2018-11-10T10:57:51.166Z,95183.75
2018-11-10T11:01:22.899Z,95182.54
2018-11-10T11:03:56.808Z,95178.31
2018-11-10T11:06:25.603Z,95175.24
2018-11-10T11:08:54.417Z,95171.70
2018-11-10T11:11:23.401Z,95161.19
2018-11-10T11:13:52.178Z,95160.58
2018-11-10T11:16:21.010Z,95150.35
2018-11-10T11:18:49.819Z,95152.48
2018-11-10T11:21:20.152Z,95152.25
2018-11-10T11:23:49.788Z,95148.88
2018-11-10T11:26:21.885Z,95144.49
2018-11-10T11:28:52.577Z,95140.54
2018-11-10T11:31:21.414Z,95138.61
2018-11-10T11:33:54.808Z,95138.14
2018-11-10T11:36:30.161Z,95126.66
2018-11-10T11:39:02.307Z,95136.52
2018-11-10T11:41:43.879Z,95138.21
2018-11-10T11:44:19.569Z,95133.55
2018-11-10T11:46:56.587Z,95128.98
2018-11-10T11:49:29.531Z,95128.03
2018-11-10T11:52:01.922Z,95131.24
2018-11-10T11:54:32.751Z,95126.23
2018-11-10T11:57:03.783Z,95130.28
2018-11-10T11:59:32.634Z,95121.57
2018-11-10T12:02:01.449Z,95121.66
2018-11-10T12:04:30.410Z,95116.91
2018-11-10T12:06:59.335Z,95113.56
2018-11-10T12:09:28.094Z,95110.20
2018-11-10T12:11:56.870Z,95109.30
2018-11-10T12:14:25.669Z,95115.13
2018-11-10T12:16:54.489Z,95109.30
2018-11-10T12:19:23.455Z,95106.86
2018-11-10T12:21:52.575Z,95105.39
2018-11-10T12:24:21.507Z,95106.34
2018-11-10T12:26:50.463Z,95101.02
2018-11-10T12:29:19.807Z,95102.77
2018-11-10T12:31:48.689Z,95101.78
2018-11-10T12:34:17.640Z,95100.87
2018-11-10T12:36:46.606Z,95098.18
2018-11-10T12:39:15.482Z,95102.96
2018-11-10T12:41:44.336Z,95099.86
2018-11-10T12:44:13.208Z,95101.21
2018-11-10T12:46:42.092Z,95097.44
2018-11-10T12:49:11.329Z,95098.04
2018-11-10T12:51:40.270Z,95103.16
2018-11-10T12:54:09.004Z,95089.56
2018-11-10T12:56:37.820Z,95088.30
2018-11-10T12:59:06.735Z,95089.62
2018-11-10T13:01:35.539Z,95088.00
2018-11-10T13:04:04.386Z,95084.77
2018-11-10T13:06:33.236Z,95089.11
2018-11-10T13:09:02.060Z,95083.11
2018-11-10T13:11:31.152Z,95079.97
2018-11-10T13:14:00.086Z,95084.94
2018-11-10T13:16:28.942Z,95083.33
2018-11-10T13:18:58.348Z,95081.80
2018-11-10T13:21:27.187Z,95082.60
2018-11-10T13:23:56.196Z,95079.81
2018-11-10T13:26:25.239Z,95083.34
2018-11-10T13:28:54.079Z,95080.41
2018-11-10T13:31:23.015Z,95082.53
2018-11-10T13:33:51.899Z,95084.66
2018-11-10T13:36:24.364Z,95082.66
2018-11-10T13:38:53.353Z,95084.06
2018-11-10T13:41:22.250Z,95077.08
2018-11-10T13:43:51.188Z,95071.88
2018-11-10T13:46:20.076Z,95074.52
2018-11-10T13:48:48.903Z,95073.70
2018-11-10T13:51:17.818Z,95073.19
2018-11-10T13:53:46.870Z,95068.73
2018-11-10T13:56:15.729Z,95072.08
2018-11-10T13:58:45.406Z,95075.83
2018-11-10T14:01:14.223Z,95074.30
2018-11-10T14:03:43.055Z,95073.79
2018-11-10T14:06:11.991Z,95076.13
2018-11-10T14:08:40.734Z,95071.88
2018-11-10T14:11:09.578Z,95074.21
2018-11-10T14:13:38.450Z,95072.00
2018-11-10T14:16:07.339Z,95066.42
2018-11-10T14:18:36.170Z,95064.35
2018-11-10T14:21:05.019Z,95074.16
2018-11-10T14:23:33.896Z,95074.75
2018-11-10T14:26:03.822Z,95075.77
2018-11-10T14:28:32.803Z,95072.48
2018-11-10T14:31:01.632Z,95080.72
2018-11-10T14:33:30.415Z,95074.09
2018-11-10T14:35:59.251Z,95077.23
2018-11-10T14:38:28.110Z,95078.47
2018-11-10T14:40:56.917Z,95078.20
2018-11-10T14:43:25.793Z,95079.33
2018-11-10T14:45:54.577Z,95089.72
2018-11-10T14:48:23.352Z,95091.50
2018-11-10T14:50:52.193Z,95088.89
2018-11-10T14:53:21.035Z,95089.79
2018-11-10T14:55:49.841Z,95095.67
2018-11-10T14:58:18.664Z,95085.63
2018-11-10T15:00:47.576Z,95089.69
2018-11-10T15:03:16.462Z,95093.48
2018-11-10T15:05:45.389Z,95096.01
2018-11-10T15:08:17.583Z,95089.86
2018-11-10T15:10:46.504Z,95094.42
2018-11-10T15:13:15.390Z,95096.89
2018-11-10T15:15:44.167Z,95101.07
2018-11-10T15:18:13.080Z,95100.13
2018-11-10T15:20:41.987Z,95095.60
2018-11-10T15:23:10.817Z,95099.27
2018-11-10T15:25:39.629Z,95099.77
2018-11-10T15:28:08.787Z,95097.56
2018-11-10T15:30:37.587Z,95097.48
2018-11-10T15:33:06.375Z,95094.77
2018-11-10T15:35:35.281Z,95104.38
2018-11-10T15:38:04.062Z,95101.84
2018-11-10T15:40:32.803Z,95100.16
2018-11-10T15:43:01.582Z,95103.47
2018-11-10T15:45:30.421Z,95101.16
2018-11-10T15:47:59.810Z,95108.13
2018-11-10T15:50:28.740Z,95106.93
2018-11-10T15:52:57.750Z,95112.70
2018-11-10T15:55:26.523Z,95109.34
2018-11-10T15:57:55.330Z,95115.27
2018-11-10T16:00:24.335Z,95113.06
2018-11-10T16:02:53.146Z,95117.08
2018-11-10T16:05:21.958Z,95111.52
2018-11-10T16:07:50.792Z,95116.46
2018-11-10T16:10:19.785Z,95112.95
2018-11-10T16:12:48.739Z,95120.83
2018-11-10T16:15:18.451Z,95113.14
2018-11-10T16:17:47.374Z,95112.13
2018-11-10T16:20:17.453Z,95115.96
2018-11-10T16:22:47.707Z,95121.91
2018-11-10T16:25:16.791Z,95121.02
2018-11-10T16:27:46.883Z,95124.00
2018-11-10T16:30:17.156Z,95126.93
2018-11-10T16:32:46.199Z,95127.94
2018-11-10T16:35:15.098Z,95132.38
2018-11-10T16:37:43.856Z,95127.73
2018-11-10T16:40:15.983Z,95132.67
2018-11-10T16:42:45.841Z,95133.98
2018-11-10T16:45:15.266Z,95135.06
2018-11-10T16:47:44.239Z,95134.88
2018-11-10T16:50:13.230Z,95136.07
2018-11-10T16:52:42.924Z,95145.67
2018-11-10T16:55:11.893Z,95145.44
2018-11-10T16:57:40.856Z,95141.88
2018-11-10T17:00:15.323Z,95143.50
2018-11-10T17:02:44.247Z,95141.19
2018-11-10T17:05:13.168Z,95142.81
2018-11-10T17:07:42.266Z,95143.00
2018-11-10T17:10:14.821Z,95147.35
2018-11-10T17:12:43.937Z,95150.67
2018-11-10T17:15:12.758Z,95157.49
2018-11-10T17:17:41.807Z,95159.72
2018-11-10T17:20:13.070Z,95163.22
2018-11-10T17:22:42.014Z,95164.02
2018-11-10T17:25:11.999Z,95164.17
2018-11-10T17:27:41.243Z,95170.73
2018-11-10T17:30:13.089Z,95172.23
2018-11-10T17:32:42.237Z,95167.36
2018-11-10T17:35:11.804Z,95172.11
2018-11-10T17:37:40.637Z,95176.05
2018-11-10T17:40:11.572Z,95174.83
2018-11-10T17:42:40.540Z,95173.86
2018-11-10T17:45:11.485Z,95180.14
2018-11-10T17:47:40.484Z,95182.91
2018-11-10T17:50:10.879Z,95183.73
2018-11-10T17:52:40.424Z,95184.56
2018-11-10T17:55:10.661Z,95191.50
2018-11-10T17:57:39.662Z,95192.84
2018-11-10T18:00:08.862Z,95201.52
2018-11-10T18:02:37.802Z,95205.76
2018-11-10T18:05:08.685Z,95198.40
2018-11-10T18:07:37.543Z,95198.81
2018-11-10T18:10:08.033Z,95193.07
2018-11-10T18:12:36.843Z,95202.83
2018-11-10T18:15:06.286Z,95200.88
2018-11-10T18:17:35.095Z,95205.63
2018-11-10T18:20:04.003Z,95204.63
2018-11-10T18:22:32.770Z,95208.48
2018-11-10T18:25:01.601Z,95214.03
2018-11-10T18:27:30.586Z,95212.41
2018-11-10T18:29:59.429Z,95208.88
2018-11-10T18:35:09.278Z,95221.47
2018-11-10T18:37:38.140Z,95218.25
2018-11-10T18:40:07.504Z,95219.15
2018-11-10T18:42:36.388Z,95216.28
2018-11-10T18:45:05.861Z,95219.08
2018-11-10T18:47:34.713Z,95212.61
2018-11-10T18:50:03.779Z,95211.59
2018-11-10T18:52:32.635Z,95217.45
2018-11-10T18:55:01.479Z,95219.89
2018-11-10T18:57:30.520Z,95226.27
2018-11-10T18:59:59.355Z,95223.64
2018-11-10T19:02:28.172Z,95221.03
2018-11-10T19:04:56.955Z,95229.52
2018-11-10T19:07:25.775Z,95227.58
2018-11-10T19:09:54.591Z,95233.80
2018-11-10T19:12:23.797Z,95238.41
2018-11-10T19:14:52.626Z,95242.65
2018-11-10T19:17:21.525Z,95236.17
2018-11-10T19:19:50.387Z,95241.02
2018-11-10T19:22:19.346Z,95240.66
2018-11-10T19:24:48.191Z,95248.56
2018-11-10T19:27:16.991Z,95247.95
2018-11-10T19:29:45.889Z,95254.50
2018-11-10T19:32:14.710Z,95253.19
2018-11-10T19:34:43.702Z,95257.41
2018-11-10T19:37:12.566Z,95260.23
2018-11-10T19:39:41.483Z,95261.41
2018-11-10T19:42:10.274Z,95258.22
2018-11-10T19:44:39.089Z,95262.99
2018-11-10T19:47:07.894Z,95268.59
2018-11-10T19:49:36.754Z,95266.84
2018-11-10T19:52:06.050Z,95268.16
2018-11-10T19:54:34.941Z,95270.66
2018-11-10T19:57:03.774Z,95269.27
2018-11-10T19:59:32.567Z,95273.79
2018-11-10T20:02:01.351Z,95276.93
2018-11-10T20:04:30.130Z,95274.41
2018-11-10T20:06:58.964Z,95273.27
2018-11-10T20:09:27.723Z,95273.33
2018-11-10T20:11:56.562Z,95274.34
2018-11-10T20:14:25.350Z,95276.61
2018-11-10T20:16:54.203Z,95275.15
2018-11-10T20:19:23.143Z,95283.48
2018-11-10T20:21:52.115Z,95287.64
2018-11-10T20:24:20.898Z,95289.46
2018-11-10T20:26:49.699Z,95292.42
2018-11-10T20:29:18.570Z,95292.64
2018-11-10T20:31:47.411Z,95289.44
2018-11-10T20:34:16.244Z,95293.52
2018-11-10T20:36:45.210Z,95297.34
2018-11-10T20:39:14.080Z,95296.88
2018-11-10T20:41:42.877Z,95302.09
2018-11-10T20:44:11.726Z,95298.39
2018-11-10T20:46:40.592Z,95304.11
2018-11-10T20:49:09.466Z,95301.45
2018-11-10T20:51:38.262Z,95302.39
2018-11-10T20:54:07.443Z,95301.90
2018-11-10T20:56:36.193Z,95299.34
2018-11-10T20:59:05.178Z,95301.33
2018-11-10T21:01:33.970Z,95303.44
2018-11-10T21:04:02.787Z,95300.82
2018-11-10T21:06:31.627Z,95302.95
2018-11-10T21:09:00.406Z,95309.16
2018-11-10T21:11:29.178Z,95309.20
2018-11-10T21:13:57.995Z,95309.36
2018-11-10T21:16:26.771Z,95308.05
2018-11-10T21:18:55.645Z,95310.14
2018-11-10T21:21:24.458Z,95317.98
2018-11-10T21:23:53.243Z,95315.39
2018-11-10T21:26:22.038Z,95318.05
2018-11-10T21:28:50.872Z,95316.42
2018-11-10T21:31:19.860Z,95320.87
2018-11-10T21:33:48.864Z,95322.72
2018-11-10T21:36:17.742Z,95322.47
2018-11-10T21:38:46.526Z,95329.02
2018-11-10T21:41:15.410Z,95332.74
2018-11-10T21:43:44.263Z,95335.71
2018-11-10T21:46:13.312Z,95334.08
2018-11-10T21:48:42.099Z,95336.39
2018-11-10T21:51:10.946Z,95341.78
2018-11-10T21:53:39.731Z,95340.15
2018-11-10T21:56:08.507Z,95350.39
2018-11-10T21:58:37.314Z,95341.91
2018-11-10T22:01:06.164Z,95350.23
2018-11-10T22:03:34.954Z,95346.80
2018-11-10T22:06:03.774Z,95342.56
2018-11-10T22:08:32.761Z,95349.90
2018-11-10T22:11:01.639Z,95347.97
2018-11-10T22:13:30.670Z,95344.38
2018-11-10T22:15:59.591Z,95341.12
2018-11-10T22:18:28.708Z,95337.73
2018-11-10T22:20:57.495Z,95343.44
2018-11-10T22:23:26.285Z,95342.75
2018-11-10T22:25:55.159Z,95341.16
2018-11-10T22:28:23.970Z,95343.59
2018-11-10T22:30:52.836Z,95342.64
2018-11-10T22:33:21.848Z,95343.78
2018-11-10T22:35:50.605Z,95343.62
2018-11-10T22:38:19.382Z,95346.06
2018-11-10T22:40:48.234Z,95356.17
2018-11-10T22:43:16.995Z,95350.14
2018-11-10T22:45:45.727Z,95354.70
2018-11-10T22:48:14.571Z,95351.58
2018-11-10T22:50:43.335Z,95349.14
2018-11-10T22:53:12.174Z,95351.77
2018-11-10T22:55:41.007Z,95355.05
2018-11-10T22:58:09.772Z,95355.25
2018-11-10T23:00:42.781Z,95356.55
2018-11-10T23:03:11.601Z,95365.67
2018-11-10T23:05:40.432Z,95358.34
2018-11-10T23:08:09.604Z,95360.61
2018-11-10T23:10:38.751Z,95357.22
2018-11-10T23:13:07.642Z,95356.89
2018-11-10T23:15:36.407Z,95355.91
2018-11-10T23:18:05.264Z,95353.94
2018-11-10T23:20:34.048Z,95357.20
2018-11-10T23:23:02.926Z,95358.17
2018-11-10T23:25:31.868Z,95359.66
2018-11-10T23:28:00.680Z,95361.61
2018-11-10T23:30:29.536Z,95366.16
2018-11-10T23:32:58.302Z,95360.94
2018-11-10T23:35:27.069Z,95366.83
2018-11-10T23:37:55.886Z,95370.88
2018-11-10T23:40:24.754Z,95369.59
2018-11-10T23:42:53.571Z,95374.95
2018-11-10T23:45:22.363Z,95375.78
2018-11-10T23:47:51.167Z,95380.33
2018-11-10T23:50:19.958Z,95375.94
2018-11-10T23:52:48.826Z,95381.64
2018-11-10T23:55:17.918Z,95380.17
2018-11-10T23:57:46.827Z,95378.21
